BLACK BUTTE (BLB)

Elevation: 426' · STONY CR basin · Operator: US Army Corps of Engineers

Provisional data, subject to change.
Query executed Saturday at 21:52:50   clock

Select a sensor type for a plot of data.
Note: Reservoir Flows are daily averages.

Earlier

Date RES ELE    STORAGE    RES CHG    TOC STO    ABV TOC    OUTFLOW    INFLOW    PPT INC    TEMP MN    TEMP MX    EVP PAN   
 FEET   AF   AF   AF   AF   CFS   CFS   INCHES   DEG F   DEG F   INCHES  
01/14/2016 444.40 40445 599 29800 10645 922 1225 0.86 4 8 0.02
01/15/2016 444.75 41202 757 29800 11402 921 1305 0.24 6 13 0.04
01/16/2016 445.81 43552 2350 29800 13752 923 2109 0.74 8 12 0.01
01/17/2016 448.02 48721 5169 29800 18921 920 3528 1.77 10 13 0.02
01/18/2016 451.40 57359 8638 29800 27559 925 5284 0.02 11 15 0.04
01/19/2016 452.81 61257 3898 29800 31457 2834 4805 1.29 10 17 0.06
01/20/2016 451.76 58328 -2455 29800 28528 4665 3192 0.00 8 14 0.04
01/21/2016 449.82 53203 -5125 29800 23403 4882 2302 0.05 9 14 0.05
01/22/2016 447.62 47759 -5444 29800 17959 4874 2132 0.53 11 12 0.03
01/23/2016 445.31 42433 -5326 29800 12633 4871 2193 0.32 8 17 0.09
01/24/2016 442.53 36566 -5867 29800 6766 4861 1905 0.08 7 11 0.03
01/25/2016 440.01 31724 -4842 29800 1924 4114 1677 0.16 8 16 0.07
01/26/2016 439.00 29904 -1820 29800 104 2379 1465 0.02 6 15 0.06
01/27/2016 439.36 30545 641 29800 745 1102 1430 0.00 7 21 0.08
01/28/2016 439.90 31523 978 29800 1723 875 1370 0.16 8 11 0.03
01/29/2016 440.95 33480 1957 29800 3680 877 1865 0.24 10 14 0.03
01/30/2016 442.45 36405 2925 29800 6605 870 2349 0.00 6 14 0.06
01/31/2016 443.23 37986 1581 29800 2143 874 1677 0.00 5 13 0.10
02/01/2016 444.05 39698 1712 35475 4223 589 1459 0.00 5 13 0.10
02/02/2016 444.94 41617 1919 35048 6569 279 1249 0.00 3 9 0.04
02/03/2016 445.67 43237 1620 34482 8189 199 1018 0.00 3 9 0.03
02/04/2016 446.13 44278 1041 34169 10109 201 731 0.17 6 15 0.08
02/05/2016 446.45 45012 734 33649 10843 201 575 0.11 3 16 0.06
02/06/2016 446.69 45567 555 33246 12304 203 488 0.07 7 19 0.09
02/07/2016 446.78 45776 209 32841 12935 203 317 0.07 8 26 0.14
02/08/2016 446.89 46033 257 32633 13400 200 341 0.00 12 26 0.17
02/09/2016 446.97 46220 187 32076 14144 202 303 0.00 9 23 0.10
02/10/2016 447.05 46408 188 31682 14726 203 305 0.00 9 22 0.11
02/11/2016 447.10 46525 117 31428 15097 203 267 0.00 9 23 0.09
02/12/2016 447.16 46667 142 31428 15239 203 280 0.00 9 22 0.08
02/13/2016 -- -- -- -- -- -- -- -- -- -- --

Later | Latest

Warning! This data is preliminary and subject to revision.

Show BLB Map | Plot BLB Data | 1 Month BLB Data | Real-Time BLB Data | BLB Info